createdAt,value
2022-12-09T00:00:48.280Z,99656.03
2022-12-09T00:03:52.678Z,99652.75
2022-12-09T00:06:57.386Z,99642.31
2022-12-09T00:10:01.621Z,99644.69
2022-12-09T00:13:07.247Z,99653.00
2022-12-09T00:16:14.130Z,99649.09
2022-12-09T00:19:18.426Z,99643.13
2022-12-09T00:22:22.909Z,99646.59
2022-12-09T00:25:27.313Z,99646.50
2022-12-09T00:28:32.955Z,99653.56
2022-12-09T00:31:39.273Z,99664.97
2022-12-09T00:34:43.895Z,99670.22
2022-12-09T00:37:47.943Z,99664.44
2022-12-09T00:40:52.993Z,99672.53
2022-12-09T00:43:59.369Z,99663.63
2022-12-09T00:47:03.789Z,99671.03
2022-12-09T00:50:09.411Z,99664.47
2022-12-09T00:53:13.817Z,99664.00
2022-12-09T00:56:18.005Z,99655.97
2022-12-09T00:59:23.617Z,99653.31
2022-12-09T01:02:27.918Z,99646.44
2022-12-09T01:05:36.345Z,99639.84
2022-12-09T01:08:42.842Z,99644.88
2022-12-09T01:11:47.454Z,99639.72
2022-12-09T01:14:53.396Z,99650.56
2022-12-09T01:17:58.281Z,99648.66
2022-12-09T01:21:02.556Z,99649.19
2022-12-09T01:24:10.153Z,99656.63
2022-12-09T01:27:14.500Z,99648.97
2022-12-09T01:30:21.168Z,99644.59
2022-12-09T01:33:25.693Z,99644.72
2022-12-09T01:36:31.747Z,99635.78
2022-12-09T01:39:36.341Z,99648.69
2022-12-09T01:42:40.907Z,99642.38
2022-12-09T01:45:46.712Z,99643.50
2022-12-09T01:48:50.991Z,99629.44
2022-12-09T01:52:02.915Z,99636.34
2022-12-09T01:55:08.638Z,99633.56
2022-12-09T01:58:14.139Z,99639.50
2022-12-09T02:01:20.367Z,99636.41
2022-12-09T02:04:25.621Z,99643.31
2022-12-09T02:07:30.247Z,99635.81
2022-12-09T02:10:40.293Z,99626.09
2022-12-09T02:13:57.293Z,99621.28
2022-12-09T02:17:27.570Z,99620.84
2022-12-09T02:20:41.133Z,99626.38
2022-12-09T02:23:52.392Z,99635.28
2022-12-09T02:27:02.783Z,99627.34
2022-12-09T02:30:14.354Z,99610.06
2022-12-09T02:33:33.395Z,99615.00
2022-12-09T02:36:51.679Z,99627.09
2022-12-09T02:40:00.769Z,99631.03
2022-12-09T02:43:09.607Z,99629.81
2022-12-09T02:46:16.716Z,99620.19
2022-12-09T02:49:24.034Z,99612.56
2022-12-09T02:52:30.930Z,99617.59
2022-12-09T02:55:36.860Z,99623.63
2022-12-09T02:58:40.902Z,99626.81
2022-12-09T03:01:51.447Z,99619.38
2022-12-09T03:05:10.574Z,99627.88
2022-12-09T03:08:26.049Z,99629.91
2022-12-09T03:11:33.735Z,99626.94
2022-12-09T03:14:43.806Z,99642.16
2022-12-09T03:17:48.691Z,99639.03
2022-12-09T03:20:53.680Z,99623.78
2022-12-09T03:24:02.490Z,99636.06
2022-12-09T03:27:11.107Z,99643.53
2022-12-09T03:30:16.991Z,99664.81
2022-12-09T03:33:24.505Z,99664.50
2022-12-09T03:36:35.913Z,99658.19
2022-12-09T03:39:43.165Z,99655.34
2022-12-09T03:42:54.996Z,99664.50
2022-12-09T03:46:00.044Z,99654.66
2022-12-09T03:49:04.444Z,99648.06
2022-12-09T03:52:15.606Z,99660.25
2022-12-09T03:55:27.158Z,99661.06
2022-12-09T03:58:35.272Z,99662.97
2022-12-09T04:01:41.836Z,99656.09
2022-12-09T04:04:46.292Z,99653.84
2022-12-09T04:07:51.105Z,99650.75
2022-12-09T04:10:57.437Z,99650.22
2022-12-09T04:14:01.780Z,99657.19
2022-12-09T04:17:06.256Z,99650.31
2022-12-09T04:20:11.965Z,99647.97
2022-12-09T04:23:16.372Z,99644.88
2022-12-09T04:26:24.786Z,99637.50
2022-12-09T04:29:29.017Z,99635.72
2022-12-09T04:32:33.849Z,99643.75
2022-12-09T04:35:38.167Z,99634.09
2022-12-09T04:38:43.052Z,99638.00
2022-12-09T04:41:48.993Z,99632.03
2022-12-09T04:44:53.297Z,99637.78
2022-12-09T04:47:57.550Z,99638.59
2022-12-09T04:51:02.090Z,99636.00
2022-12-09T04:54:06.445Z,99636.81
2022-12-09T04:57:12.583Z,99637.75
2022-12-09T05:00:18.034Z,99645.03
2022-12-09T05:03:22.621Z,99649.56
2022-12-09T05:06:27.526Z,99655.47
2022-12-09T05:09:31.879Z,99649.56
2022-12-09T05:12:38.259Z,99658.38
2022-12-09T05:15:42.875Z,99650.66
2022-12-09T05:18:48.154Z,99659.75
2022-12-09T05:21:53.006Z,99667.25
2022-12-09T05:24:57.206Z,99660.69
2022-12-09T05:28:04.522Z,99661.38
2022-12-09T05:31:10.732Z,99659.75
2022-12-09T05:34:15.397Z,99649.72
2022-12-09T05:37:20.089Z,99653.16
2022-12-09T05:40:24.778Z,99649.81
2022-12-09T05:43:30.681Z,99654.75
2022-12-09T05:46:35.310Z,99655.34
2022-12-09T05:49:40.718Z,99666.97
2022-12-09T05:52:44.990Z,99657.16
2022-12-09T05:55:49.751Z,99660.44
2022-12-09T05:58:56.736Z,99661.66
2022-12-09T06:02:05.115Z,99661.84
2022-12-09T06:05:13.914Z,99662.56
2022-12-09T06:08:18.815Z,99676.47
2022-12-09T06:11:24.058Z,99676.53
2022-12-09T06:14:30.337Z,99673.19
2022-12-09T06:17:35.031Z,99682.09
2022-12-09T06:20:41.672Z,99689.03
2022-12-09T06:23:46.350Z,99696.53
2022-12-09T06:26:51.106Z,99708.69
2022-12-09T06:29:57.083Z,99701.06
2022-12-09T06:33:02.360Z,99702.47
2022-12-09T06:36:08.457Z,99709.63
2022-12-09T06:39:13.238Z,99713.88
2022-12-09T06:42:17.947Z,99709.41
2022-12-09T06:45:24.201Z,99713.91
2022-12-09T06:48:28.683Z,99710.31
2022-12-09T06:51:33.878Z,99700.94
2022-12-09T06:54:38.336Z,99707.63
2022-12-09T06:57:42.549Z,99714.28
2022-12-09T07:00:48.897Z,99718.69
2022-12-09T07:03:55.710Z,99719.13
2022-12-09T07:07:00.651Z,99712.88
2022-12-09T07:10:06.763Z,99714.00
2022-12-09T07:13:11.523Z,99713.16
2022-12-09T07:16:17.819Z,99714.22
2022-12-09T07:19:24.750Z,99715.72
2022-12-09T07:22:29.176Z,99715.84
2022-12-09T07:25:33.789Z,99705.47
2022-12-09T07:28:41.393Z,99714.59
2022-12-09T07:31:47.906Z,99710.50
2022-12-09T07:34:52.742Z,99699.63
2022-12-09T07:37:57.937Z,99696.47
2022-12-09T07:41:07.626Z,99705.28
2022-12-09T07:44:12.953Z,99712.56
2022-12-09T07:47:18.892Z,99711.59
2022-12-09T07:50:23.423Z,99708.88
2022-12-09T07:53:27.850Z,99710.50
2022-12-09T07:56:32.260Z,99719.53
2022-12-09T07:59:39.725Z,99710.75
2022-12-09T08:02:45.527Z,99706.66
2022-12-09T08:05:53.760Z,99718.63
2022-12-09T08:09:01.034Z,99729.41
2022-12-09T08:12:06.322Z,99726.41
2022-12-09T08:15:12.648Z,99725.03
2022-12-09T08:18:18.912Z,99717.09
2022-12-09T08:21:25.627Z,99720.09
2022-12-09T08:24:30.108Z,99727.91
2022-12-09T08:27:34.589Z,99736.00
2022-12-09T08:30:39.426Z,99722.72
2022-12-09T08:33:45.918Z,99715.44
2022-12-09T08:36:50.217Z,99702.69
2022-12-09T08:39:54.683Z,99702.38
2022-12-09T08:42:59.329Z,99704.03
2022-12-09T08:46:04.059Z,99706.25
2022-12-09T08:49:11.030Z,99694.03
2022-12-09T08:52:15.731Z,99696.75
2022-12-09T08:55:20.312Z,99701.44
2022-12-09T08:58:25.070Z,99701.72
2022-12-09T09:01:36.029Z,99700.34
2022-12-09T09:04:42.481Z,99698.16
2022-12-09T09:07:47.082Z,99701.72
2022-12-09T09:10:52.012Z,99684.56
2022-12-09T09:13:56.954Z,99686.59
2022-12-09T09:17:01.922Z,99678.94
2022-12-09T09:20:09.649Z,99676.16
2022-12-09T09:23:14.453Z,99661.78
2022-12-09T09:26:20.846Z,99650.47
2022-12-09T09:29:25.732Z,99661.19
2022-12-09T09:32:30.445Z,99645.44
2022-12-09T09:35:36.628Z,99652.03
2022-12-09T09:38:41.721Z,99648.16
2022-12-09T09:41:52.632Z,99657.75
2022-12-09T09:44:57.660Z,99630.91
2022-12-09T09:48:04.925Z,99641.63
2022-12-09T09:51:17.140Z,99637.44
2022-12-09T09:54:21.518Z,99643.50
2022-12-09T09:57:31.396Z,99635.28
2022-12-09T10:00:41.480Z,99630.53
2022-12-09T10:03:55.461Z,99630.00
2022-12-09T10:07:09.499Z,99610.63
2022-12-09T10:10:25.017Z,99607.84
2022-12-09T10:13:45.265Z,99602.00
2022-12-09T10:16:57.320Z,99596.81
2022-12-09T10:20:08.401Z,99601.47
2022-12-09T10:23:16.653Z,99600.22
2022-12-09T10:26:28.290Z,99584.69
2022-12-09T10:29:52.145Z,99568.75
2022-12-09T10:32:56.631Z,99557.00
2022-12-09T10:36:01.481Z,99560.47
2022-12-09T10:39:07.984Z,99553.34
2022-12-09T10:42:35.062Z,99542.00
2022-12-09T10:49:22.888Z,99543.66
2022-12-09T10:52:31.780Z,99525.88
2022-12-09T10:55:39.721Z,99523.25
2022-12-09T10:58:44.082Z,99519.22
2022-12-09T11:01:53.718Z,99510.78
2022-12-09T11:04:58.413Z,99505.06
2022-12-09T11:08:03.343Z,99511.81
2022-12-09T11:11:10.299Z,99509.06
2022-12-09T11:14:27.222Z,99502.06
2022-12-09T11:17:34.797Z,99498.78
2022-12-09T11:20:41.198Z,99516.50
2022-12-09T11:24:02.432Z,99515.50
2022-12-09T11:27:26.828Z,99504.13
2022-12-09T11:30:34.852Z,99507.84
2022-12-09T11:33:44.147Z,99494.50
2022-12-09T11:36:53.042Z,99492.72
2022-12-09T11:39:57.334Z,99499.00
2022-12-09T11:43:03.962Z,99488.22
2022-12-09T11:46:22.082Z,99478.78
2022-12-09T11:49:28.206Z,99494.03
2022-12-09T11:52:33.049Z,99486.00
2022-12-09T11:55:43.486Z,99491.47
2022-12-09T11:58:54.702Z,99479.91
2022-12-09T12:02:19.096Z,99474.75
2022-12-09T12:05:26.093Z,99481.22
2022-12-09T12:08:36.943Z,99489.34
2022-12-09T12:11:48.437Z,99480.53
2022-12-09T12:14:55.174Z,99466.56
2022-12-09T12:18:05.522Z,99457.41
2022-12-09T12:21:46.824Z,99452.59
2022-12-09T12:25:18.036Z,99462.72
2022-12-09T12:29:00.106Z,99475.81
2022-12-09T12:32:23.920Z,99461.13
2022-12-09T12:35:49.706Z,99452.72
2022-12-09T12:39:06.688Z,99448.50
2022-12-09T12:42:34.455Z,99455.19
2022-12-09T12:46:04.352Z,99455.03
2022-12-09T12:49:33.395Z,99455.50
2022-12-09T12:53:01.341Z,99463.53
2022-12-09T12:56:09.364Z,99476.78
2022-12-09T12:59:23.452Z,99470.34
2022-12-09T13:02:42.678Z,99462.25
2022-12-09T13:05:51.683Z,99455.31
2022-12-09T13:09:03.339Z,99453.53
2022-12-09T13:12:13.946Z,99453.38
2022-12-09T13:15:20.815Z,99464.19
2022-12-09T13:18:28.313Z,99447.81
2022-12-09T13:21:34.272Z,99438.63
2022-12-09T13:24:44.270Z,99447.44
2022-12-09T13:27:56.003Z,99467.97
2022-12-09T13:31:02.391Z,99472.97
2022-12-09T13:34:21.443Z,99469.31
2022-12-09T13:37:57.872Z,99467.72
2022-12-09T13:41:02.132Z,99459.22
2022-12-09T13:44:11.530Z,99457.78
2022-12-09T13:47:31.307Z,99476.81
2022-12-09T13:50:40.910Z,99472.09
2022-12-09T13:54:04.210Z,99462.19
2022-12-09T13:57:20.323Z,99462.41
2022-12-09T14:00:24.527Z,99458.50
2022-12-09T14:03:33.269Z,99456.16
2022-12-09T14:06:43.202Z,99470.47
2022-12-09T14:09:52.612Z,99450.53
2022-12-09T14:13:05.872Z,99460.63
2022-12-09T14:16:33.583Z,99448.00
2022-12-09T14:19:56.696Z,99447.81
2022-12-09T14:23:21.756Z,99446.00
2022-12-09T14:26:37.604Z,99438.50
2022-12-09T14:29:57.243Z,99453.00
2022-12-09T14:33:02.916Z,99447.84
2022-12-09T14:36:21.513Z,99452.50
2022-12-09T14:39:31.021Z,99443.09
2022-12-09T14:42:46.526Z,99444.06
2022-12-09T14:45:56.103Z,99455.50
2022-12-09T14:49:03.374Z,99445.53
2022-12-09T14:52:25.318Z,99449.25
2022-12-09T14:55:31.485Z,99461.75
2022-12-09T14:58:37.263Z,99434.84
2022-12-09T15:01:52.880Z,99444.56
2022-12-09T15:04:57.972Z,99439.69
2022-12-09T15:08:02.322Z,99436.97
2022-12-09T15:11:10.844Z,99430.09
2022-12-09T15:14:28.836Z,99438.09
2022-12-09T15:17:39.444Z,99445.06
2022-12-09T15:20:44.343Z,99453.63
2022-12-09T15:23:48.732Z,99442.31
2022-12-09T15:27:00.806Z,99445.94
2022-12-09T15:30:23.824Z,99444.28
2022-12-09T15:33:30.828Z,99423.78
2022-12-09T15:36:39.334Z,99423.69
2022-12-09T15:39:50.451Z,99424.06
2022-12-09T15:42:57.866Z,99423.53
2022-12-09T15:46:04.597Z,99416.38
2022-12-09T15:49:11.247Z,99417.63
2022-12-09T15:52:18.380Z,99422.84
2022-12-09T15:55:30.694Z,99405.59
2022-12-09T15:58:38.204Z,99414.66
2022-12-09T16:01:50.132Z,99415.66
2022-12-09T16:04:58.027Z,99425.69
2022-12-09T16:08:03.584Z,99413.72
2022-12-09T16:11:08.198Z,99411.41
2022-12-09T16:14:13.128Z,99410.88
2022-12-09T16:17:24.779Z,99406.78
2022-12-09T16:20:35.175Z,99403.22
2022-12-09T16:23:39.537Z,99391.00
2022-12-09T16:26:48.557Z,99390.41
2022-12-09T16:29:54.878Z,99388.19
2022-12-09T16:33:01.814Z,99405.78
2022-12-09T16:36:08.205Z,99400.84
2022-12-09T16:39:34.870Z,99394.97
2022-12-09T16:42:40.953Z,99395.56
2022-12-09T16:45:46.900Z,99384.03
2022-12-09T16:48:52.657Z,99389.47
2022-12-09T16:51:56.743Z,99405.41
2022-12-09T16:55:01.033Z,99399.66
2022-12-09T16:58:05.297Z,99402.88
2022-12-09T17:01:14.164Z,99403.50
2022-12-09T17:04:22.559Z,99399.28
2022-12-09T17:07:26.744Z,99401.69
2022-12-09T17:10:30.757Z,99403.16
2022-12-09T17:13:35.013Z,99406.50
2022-12-09T17:16:40.598Z,99401.31
2022-12-09T17:19:46.352Z,99405.94
2022-12-09T17:22:50.764Z,99393.75
2022-12-09T17:25:58.551Z,99393.69
2022-12-09T17:29:02.707Z,99377.00
2022-12-09T17:32:07.585Z,99375.38
2022-12-09T17:35:16.358Z,99376.97
2022-12-09T17:38:20.936Z,99370.09
2022-12-09T17:41:25.163Z,99381.34
2022-12-09T17:44:29.808Z,99380.03
2022-12-09T17:47:33.995Z,99382.50
2022-12-09T17:50:41.049Z,99376.03
2022-12-09T17:53:45.823Z,99375.38
2022-12-09T17:56:50.081Z,99380.16
2022-12-09T17:59:54.237Z,99380.16
2022-12-09T18:02:58.484Z,99371.06
2022-12-09T18:06:04.203Z,99347.50
2022-12-09T18:09:10.937Z,99353.22
2022-12-09T18:12:15.416Z,99362.09
2022-12-09T18:15:19.596Z,99369.88
2022-12-09T18:18:23.827Z,99368.44
2022-12-09T18:21:29.553Z,99376.44
2022-12-09T18:24:33.797Z,99388.28
2022-12-09T18:27:37.984Z,99386.63
2022-12-09T18:30:42.189Z,99362.75
2022-12-09T18:33:46.873Z,99360.38
2022-12-09T18:36:52.964Z,99370.38
2022-12-09T18:39:57.269Z,99372.47
2022-12-09T18:43:01.474Z,99374.09
2022-12-09T18:46:08.031Z,99366.84
2022-12-09T18:49:14.686Z,99379.50
2022-12-09T18:52:20.367Z,99376.19
2022-12-09T18:55:24.564Z,99380.16
2022-12-09T18:58:57.551Z,99387.28
2022-12-09T19:01:54.716Z,99383.13
2022-12-09T19:04:59.403Z,99370.31
2022-12-09T19:08:05.294Z,99380.59
2022-12-09T19:11:09.513Z,99376.25
2022-12-09T19:14:14.583Z,99363.69
2022-12-09T19:17:19.293Z,99363.88
2022-12-09T19:20:23.544Z,99357.72
2022-12-09T19:23:29.405Z,99367.66
2022-12-09T19:26:35.513Z,99352.31
2022-12-09T19:29:39.946Z,99356.03
2022-12-09T19:32:59.265Z,99351.50
2022-12-09T19:36:05.106Z,99350.63
2022-12-09T19:39:11.744Z,99360.38
2022-12-09T19:42:16.172Z,99345.38
2022-12-09T19:45:20.286Z,99350.91
2022-12-09T19:48:24.447Z,99347.88
2022-12-09T19:51:29.235Z,99332.44
2022-12-09T19:54:34.844Z,99340.13
2022-12-09T19:57:38.963Z,99339.88
2022-12-09T20:00:43.496Z,99335.56
2022-12-09T20:03:50.074Z,99341.34
2022-12-09T20:06:54.185Z,99333.03
2022-12-09T20:09:59.886Z,99321.38
2022-12-09T20:13:04.294Z,99325.97
2022-12-09T20:16:10.152Z,99322.44
2022-12-09T20:19:14.346Z,99327.09
2022-12-09T20:22:18.753Z,99313.03
2022-12-09T20:25:24.355Z,99316.78
2022-12-09T20:28:28.622Z,99320.00
2022-12-09T20:31:34.446Z,99305.53
2022-12-09T20:34:39.117Z,99304.75
2022-12-09T20:37:44.319Z,99308.44
2022-12-09T20:40:50.186Z,99297.16
2022-12-09T20:43:56.729Z,99289.63
2022-12-09T20:47:00.812Z,99297.25
2022-12-09T20:50:05.820Z,99286.91
2022-12-09T20:53:10.263Z,99286.97
2022-12-09T20:56:16.655Z,99284.59
2022-12-09T20:59:20.884Z,99273.41
2022-12-09T21:02:25.048Z,99284.97
2022-12-09T21:05:29.313Z,99269.41
2022-12-09T21:08:33.845Z,99270.00
2022-12-09T21:11:40.514Z,99270.16
2022-12-09T21:14:44.627Z,99290.28
2022-12-09T21:17:51.199Z,99286.31
2022-12-09T21:20:57.881Z,99276.09
2022-12-09T21:24:02.704Z,99295.03
2022-12-09T21:27:08.346Z,99281.72
2022-12-09T21:30:13.544Z,99277.38
2022-12-09T21:33:17.714Z,99284.16
2022-12-09T21:36:24.743Z,99282.06
2022-12-09T21:39:29.712Z,99293.19
2022-12-09T21:42:35.399Z,99289.09
2022-12-09T21:45:39.583Z,99281.75
2022-12-09T21:48:45.896Z,99276.84
2022-12-09T21:51:52.180Z,99267.81
2022-12-09T21:54:56.433Z,99266.91
2022-12-09T21:58:02.204Z,99260.75
2022-12-09T22:01:11.717Z,99280.47
2022-12-09T22:04:17.784Z,99283.94
2022-12-09T22:07:21.856Z,99273.25
2022-12-09T22:10:26.895Z,99264.13
2022-12-09T22:13:37.721Z,99265.81
2022-12-09T22:16:46.279Z,99262.03
2022-12-09T22:20:33.384Z,99271.63
2022-12-09T22:23:14.997Z,99260.94
2022-12-09T22:26:21.022Z,99261.41
2022-12-09T22:29:27.730Z,99251.22
2022-12-09T22:32:36.467Z,99243.00
2022-12-09T22:35:44.353Z,99255.38
2022-12-09T22:38:49.297Z,99246.31
2022-12-09T22:41:53.585Z,99256.41
2022-12-09T22:44:59.303Z,99248.22
2022-12-09T22:48:03.696Z,99242.16
2022-12-09T22:51:11.028Z,99228.97
2022-12-09T22:54:15.709Z,99234.88
2022-12-09T22:57:19.827Z,99226.31
2022-12-09T23:00:25.703Z,99216.09
2022-12-09T23:03:30.101Z,99221.91
2022-12-09T23:06:36.813Z,99219.25
2022-12-09T23:09:41.172Z,99209.81
2022-12-09T23:12:45.327Z,99200.56
2022-12-09T23:15:51.022Z,99187.53
2022-12-09T23:18:57.353Z,99178.00
2022-12-09T23:22:01.542Z,99184.56
2022-12-09T23:25:07.814Z,99182.75
2022-12-09T23:28:13.157Z,99181.50
2022-12-09T23:31:21.135Z,99175.19
2022-12-09T23:34:25.402Z,99185.38
2022-12-09T23:37:29.674Z,99176.75
2022-12-09T23:40:34.073Z,99182.00
2022-12-09T23:43:40.037Z,99183.78
2022-12-09T23:46:46.803Z,99179.34
2022-12-09T23:49:51.023Z,99169.59
2022-12-09T23:52:55.334Z,99173.41
2022-12-09T23:55:59.493Z,99169.53
2022-12-09T23:59:05.266Z,99162.00
